createdAt,value
2018-11-26T11:30:19.181Z,11.47
2018-11-26T11:35:45.184Z,11.23
2018-11-26T11:43:51.665Z,11.43
2018-11-26T11:46:26.498Z,12.60
2018-11-26T11:48:56.119Z,12.07
2018-11-26T11:51:25.731Z,10.47
2018-11-26T11:53:54.222Z,10.67
2018-11-26T11:56:24.122Z,11.17
2018-11-26T11:58:52.615Z,11.67
2018-11-26T12:01:23.654Z,10.97
2018-11-26T12:03:52.191Z,11.10
2018-11-26T12:06:21.219Z,11.43
2018-11-26T12:08:49.806Z,11.63
2018-11-26T12:11:18.777Z,11.30
2018-11-26T12:13:47.810Z,10.77
2018-11-26T12:16:17.472Z,11.17
2018-11-26T12:18:45.982Z,11.30
2018-11-26T12:21:14.961Z,10.63
2018-11-26T12:23:43.610Z,11.07
2018-11-26T12:26:12.778Z,12.20
2018-11-26T12:28:41.338Z,11.40
2018-11-26T12:31:10.196Z,11.87
2018-11-26T12:33:38.710Z,11.73
2018-11-26T12:36:08.264Z,11.03
2018-11-26T12:38:37.432Z,11.57
2018-11-26T12:41:07.957Z,11.60
2018-11-26T12:43:55.256Z,11.30
2018-11-26T12:46:43.348Z,11.57
2018-11-26T12:49:12.968Z,11.40
2018-11-26T12:51:42.218Z,11.33
2018-11-26T12:54:11.128Z,11.93
2018-11-26T12:56:41.040Z,11.53
2018-11-26T12:59:13.202Z,12.10
2018-11-26T13:02:02.925Z,11.30
2018-11-26T13:04:50.205Z,10.73
2018-11-26T13:07:20.115Z,11.00
2018-11-26T13:09:50.028Z,11.07
2018-11-26T13:12:19.279Z,11.37
2018-11-26T13:14:48.676Z,10.40
2018-11-26T13:17:17.966Z,10.83
2018-11-26T13:19:46.999Z,10.67
2018-11-26T13:22:16.285Z,10.17
2018-11-26T13:24:44.873Z,11.33
2018-11-26T13:27:13.411Z,11.10
2018-11-26T13:29:43.020Z,10.93
2018-11-26T13:32:12.248Z,11.03
2018-11-26T13:34:41.238Z,11.03
2018-11-26T13:37:11.742Z,10.93
2018-11-26T13:39:40.932Z,10.77
2018-11-26T13:42:10.334Z,12.13
2018-11-26T13:44:38.842Z,11.87
2018-11-26T13:47:08.135Z,10.80
2018-11-26T13:49:37.276Z,10.87
2018-11-26T13:52:05.926Z,10.70
2018-11-26T13:54:34.395Z,10.93
2018-11-26T13:57:03.621Z,10.77
2018-11-26T13:59:32.570Z,10.73
2018-11-26T14:02:02.734Z,10.57
2018-11-26T14:04:41.839Z,10.50
2018-11-26T14:07:11.547Z,10.20
2018-11-26T14:09:40.556Z,10.37
2018-11-26T14:12:10.280Z,10.77
2018-11-26T14:14:38.796Z,10.63
2018-11-26T14:17:30.281Z,10.27
2018-11-26T14:19:59.903Z,10.90
2018-11-26T14:22:29.253Z,10.23
2018-11-26T14:24:57.732Z,10.53
2018-11-26T14:27:26.504Z,10.93
2018-11-26T14:29:55.309Z,10.10
2018-11-26T14:32:23.784Z,9.97
2018-11-26T14:34:52.235Z,10.20
2018-11-26T14:37:22.106Z,9.67
2018-11-26T14:40:09.592Z,10.90
2018-11-26T14:42:38.267Z,10.30
2018-11-26T14:45:09.570Z,10.93
2018-11-26T14:47:39.591Z,10.63
2018-11-26T14:50:13.957Z,12.60
2018-11-26T14:52:44.775Z,11.10
2018-11-26T14:55:17.085Z,12.17
2018-11-26T14:57:46.546Z,13.13
2018-11-26T15:00:18.745Z,12.63
2018-11-26T15:02:48.287Z,12.83
2018-11-26T15:05:19.775Z,12.97
2018-11-26T15:07:48.381Z,12.77
2018-11-26T15:10:19.198Z,13.43
2018-11-26T15:12:48.143Z,14.40
2018-11-26T15:15:20.102Z,13.60
2018-11-26T15:17:49.866Z,14.67
2018-11-26T15:20:26.614Z,14.80
2018-11-26T15:22:56.215Z,13.93
2018-11-26T15:25:27.693Z,14.77
2018-11-26T15:27:58.917Z,14.57
2018-11-26T15:30:27.938Z,14.93
2018-11-26T15:32:56.496Z,14.17
2018-11-26T15:35:25.973Z,14.73
2018-11-26T15:37:55.058Z,15.37
2018-11-26T15:40:25.143Z,14.70
2018-11-26T15:42:56.153Z,13.70
2018-11-26T15:45:32.135Z,13.83
2018-11-26T15:48:02.837Z,14.30
2018-11-26T15:50:42.025Z,14.93
2018-11-26T15:53:10.697Z,16.20
2018-11-26T15:55:40.271Z,15.27
2018-11-26T15:58:10.137Z,16.43
2018-11-26T16:00:39.117Z,16.07
2018-11-26T16:03:08.830Z,17.03
2018-11-26T16:05:39.222Z,17.10
2018-11-26T16:08:10.994Z,17.30
2018-11-26T16:10:40.844Z,17.03
2018-11-26T16:13:12.072Z,17.77
2018-11-26T16:15:43.089Z,17.63
2018-11-26T16:18:17.854Z,17.17
2018-11-26T16:20:47.840Z,17.43
2018-11-26T16:23:18.244Z,17.47
2018-11-26T16:25:48.744Z,17.57
2018-11-26T16:28:21.176Z,17.07
2018-11-26T16:30:51.323Z,17.47
2018-11-26T16:33:19.904Z,17.03
2018-11-26T16:35:48.478Z,18.20
2018-11-26T16:38:18.206Z,17.10
2018-11-26T16:40:48.001Z,18.87
2018-11-26T16:43:18.822Z,17.43
2018-11-26T16:45:48.151Z,17.87
2018-11-26T16:48:17.271Z,17.93
2018-11-26T16:50:46.551Z,18.40
2018-11-26T16:53:19.312Z,17.13
2018-11-26T16:55:54.335Z,18.03
2018-11-26T16:58:23.177Z,16.93
2018-11-26T17:00:52.991Z,17.03
2018-11-26T17:03:25.462Z,16.67
2018-11-26T17:05:54.301Z,18.87
2018-11-26T17:08:22.821Z,16.50
2018-11-26T17:10:54.509Z,17.13
2018-11-26T17:13:23.449Z,16.90
2018-11-26T17:15:52.709Z,15.73
2018-11-26T17:18:22.303Z,17.87
2018-11-26T17:21:00.924Z,16.93
2018-11-26T17:23:30.434Z,15.93
2018-11-26T17:26:07.264Z,16.70
2018-11-26T17:28:58.380Z,17.40
2018-11-26T17:31:29.882Z,16.40
2018-11-26T17:33:59.135Z,16.70
2018-11-26T17:36:27.680Z,17.17
2018-11-26T17:38:56.570Z,16.63
2018-11-26T17:41:26.023Z,16.83
2018-11-26T17:43:54.615Z,16.93
2018-11-26T17:46:23.498Z,16.33
2018-11-26T17:48:52.178Z,17.00
2018-11-26T17:51:21.126Z,16.23
2018-11-26T17:53:49.842Z,16.97
2018-11-26T17:56:18.359Z,16.37
2018-11-26T17:58:46.894Z,15.23
2018-11-26T18:01:26.866Z,17.00
2018-11-26T18:03:55.771Z,17.13
2018-11-26T18:06:24.883Z,16.90
2018-11-26T18:08:54.395Z,16.87
2018-11-26T18:11:24.043Z,17.27
2018-11-26T18:13:53.091Z,16.23
2018-11-26T18:16:21.979Z,16.63
2018-11-26T18:18:50.533Z,16.33
2018-11-26T18:21:19.525Z,16.40
2018-11-26T18:23:48.484Z,17.30
2018-11-26T18:26:17.831Z,17.87
2018-11-26T18:28:46.535Z,16.67
2018-11-26T18:31:15.768Z,16.10
2018-11-26T18:33:44.488Z,17.87
2018-11-26T18:36:14.285Z,17.33
2018-11-26T18:38:42.819Z,17.07
2018-11-26T18:41:12.169Z,17.20
2018-11-26T18:43:40.766Z,15.93
2018-11-26T18:46:09.883Z,16.53
2018-11-26T18:48:38.413Z,18.00
2018-11-26T18:51:07.642Z,17.10
2018-11-26T18:53:36.270Z,16.10
2018-11-26T18:56:05.670Z,16.33
2018-11-26T18:58:34.968Z,16.03
2018-11-26T19:01:04.150Z,14.47
2018-11-26T19:03:32.678Z,15.57
2018-11-26T19:06:01.875Z,16.47
2018-11-26T19:08:30.399Z,16.43
2018-11-26T19:11:02.376Z,15.77
2018-11-26T19:13:34.103Z,14.90
2018-11-26T19:16:11.154Z,14.47
2018-11-26T19:18:39.668Z,15.33
2018-11-26T19:21:08.828Z,16.20
2018-11-26T19:23:37.346Z,15.63
2018-11-26T19:26:06.300Z,15.20
2018-11-26T19:28:34.898Z,15.43
2018-11-26T19:31:03.768Z,15.07
2018-11-26T19:33:32.313Z,13.93
2018-11-26T19:36:01.454Z,15.40
2018-11-26T19:38:30.576Z,15.60
2018-11-26T19:40:59.755Z,15.07
2018-11-26T19:43:28.499Z,15.33
2018-11-26T19:45:57.688Z,13.93
2018-11-26T19:48:26.882Z,14.70
2018-11-26T19:50:56.391Z,14.33
2018-11-26T19:53:24.931Z,13.63
2018-11-26T19:55:54.381Z,14.77
2018-11-26T19:58:23.161Z,13.93
2018-11-26T20:00:52.899Z,14.53
2018-11-26T20:03:25.792Z,14.93
2018-11-26T20:06:03.776Z,14.23
2018-11-26T20:08:32.637Z,14.40
2018-11-26T20:11:01.480Z,13.93
2018-11-26T20:13:30.286Z,15.20
2018-11-26T20:15:59.696Z,15.73
2018-11-26T20:18:30.051Z,15.43
2018-11-26T20:20:59.683Z,14.20
2018-11-26T20:23:28.481Z,15.33
2018-11-26T20:25:57.995Z,15.17
2018-11-26T20:28:29.649Z,15.83
2018-11-26T20:31:02.577Z,14.60
2018-11-26T20:33:31.720Z,14.70
2018-11-26T20:36:00.932Z,14.37
2018-11-26T20:38:29.451Z,14.73
2018-11-26T20:40:58.538Z,14.10
2018-11-26T20:43:27.272Z,14.07
2018-11-26T20:45:56.500Z,16.07
2018-11-26T20:48:30.310Z,14.90
2018-11-26T20:50:54.571Z,14.73
2018-11-26T20:53:25.763Z,15.47
2018-11-26T20:55:55.680Z,14.50
2018-11-26T20:58:24.192Z,14.00
2018-11-26T21:00:55.731Z,14.47
2018-11-26T21:03:31.190Z,14.60
2018-11-26T21:06:00.821Z,14.77
2018-11-26T21:08:29.329Z,14.50
2018-11-26T21:10:59.372Z,13.80
2018-11-26T21:13:29.744Z,15.13
2018-11-26T21:15:58.660Z,14.63
2018-11-26T21:18:27.165Z,14.57
2018-11-26T21:20:57.075Z,14.70
2018-11-26T21:23:27.316Z,15.63
2018-11-26T21:25:58.708Z,15.37
2018-11-26T21:28:27.338Z,14.43
2018-11-26T21:30:56.337Z,14.93
2018-11-26T21:33:25.834Z,15.07
2018-11-26T21:36:24.908Z,15.90
2018-11-26T21:39:09.195Z,14.70
2018-11-26T21:41:38.334Z,15.87
2018-11-26T21:44:06.838Z,13.97
2018-11-26T21:46:35.957Z,15.47
2018-11-26T21:49:04.858Z,14.80
2018-11-26T21:51:33.456Z,15.90
2018-11-26T21:54:02.174Z,15.03
2018-11-26T21:56:31.139Z,15.80
2018-11-26T21:59:00.169Z,14.93
2018-11-26T22:01:28.660Z,14.83
2018-11-26T22:03:57.272Z,15.20
2018-11-26T22:06:27.411Z,14.10
2018-11-26T22:08:55.977Z,14.97
2018-11-26T22:11:30.201Z,15.33
2018-11-26T22:13:54.282Z,15.43
2018-11-26T22:16:23.211Z,15.13
2018-11-26T22:18:53.108Z,15.37
2018-11-26T22:21:22.226Z,15.10
2018-11-26T22:23:51.401Z,15.97
2018-11-26T22:26:20.526Z,17.17
2018-11-26T22:28:49.110Z,17.90
2018-11-26T22:31:18.991Z,16.90
2018-11-26T22:33:47.694Z,14.97
2018-11-26T22:36:16.548Z,16.23
2018-11-26T22:38:46.453Z,15.37
2018-11-26T22:41:15.486Z,17.20
2018-11-26T22:43:44.075Z,16.17
2018-11-26T22:46:15.975Z,17.80
2018-11-26T22:48:41.939Z,16.90
2018-11-26T22:51:10.796Z,16.13
2018-11-26T22:53:39.266Z,17.87
2018-11-26T22:56:09.573Z,17.10
2018-11-26T22:58:38.085Z,18.10
2018-11-26T23:01:07.705Z,17.93
2018-11-26T23:03:36.234Z,17.37
2018-11-26T23:06:05.544Z,16.90
2018-11-26T23:08:34.094Z,16.40
2018-11-26T23:11:03.584Z,17.20
2018-11-26T23:13:49.993Z,16.20
2018-11-26T23:16:19.571Z,16.57
2018-11-26T23:18:48.053Z,17.07
2018-11-26T23:21:17.168Z,16.73
2018-11-26T23:23:45.634Z,16.33
2018-11-26T23:26:14.761Z,14.80
2018-11-26T23:28:45.365Z,14.87
2018-11-26T23:31:15.204Z,15.60
2018-11-26T23:33:44.892Z,15.60
2018-11-26T23:36:14.059Z,14.60
2018-11-26T23:38:45.141Z,14.73
2018-11-26T23:41:14.203Z,14.20
2018-11-26T23:43:42.698Z,15.17
2018-11-26T23:46:12.405Z,13.40
2018-11-26T23:48:40.899Z,15.17
2018-11-26T23:51:09.742Z,13.87
2018-11-26T23:53:38.265Z,13.60
2018-11-26T23:56:07.274Z,13.67
2018-11-26T23:58:36.402Z,14.10
